createdAt,value
2023-01-19T00:00:18.762Z,47.41
2023-01-19T00:02:45.426Z,47.30
2023-01-19T00:05:12.187Z,47.33
2023-01-19T00:07:38.835Z,47.22
2023-01-19T00:10:06.053Z,47.29
2023-01-19T00:12:32.703Z,47.21
2023-01-19T00:14:59.357Z,47.14
2023-01-19T00:17:25.996Z,47.31
2023-01-19T00:19:52.654Z,47.23
2023-01-19T00:22:19.305Z,47.31
2023-01-19T00:24:45.943Z,47.26
2023-01-19T00:27:12.577Z,47.22
2023-01-19T00:29:39.218Z,47.07
2023-01-19T00:32:05.868Z,46.92
2023-01-19T00:34:32.500Z,46.85
2023-01-19T00:36:59.342Z,47.06
2023-01-19T00:39:25.996Z,46.99
2023-01-19T00:41:52.658Z,46.85
2023-01-19T00:44:19.517Z,46.75
2023-01-19T00:46:46.168Z,46.89
2023-01-19T00:49:12.810Z,47.04
2023-01-19T00:51:39.454Z,46.79
2023-01-19T00:54:06.095Z,46.94
2023-01-19T00:56:32.753Z,46.86
2023-01-19T00:58:59.639Z,46.91
2023-01-19T01:01:45.249Z,46.76
2023-01-19T01:04:13.092Z,46.65
2023-01-19T01:06:39.730Z,46.75
2023-01-19T01:09:06.385Z,46.66
2023-01-19T01:11:33.052Z,46.35
2023-01-19T01:13:59.903Z,46.43
2023-01-19T01:16:27.089Z,46.56
2023-01-19T01:18:53.757Z,46.47
2023-01-19T01:21:20.412Z,46.31
2023-01-19T01:23:47.071Z,46.20
2023-01-19T01:26:13.717Z,46.46
2023-01-19T01:28:40.358Z,46.26
2023-01-19T01:31:07.011Z,46.27
2023-01-19T01:33:40.624Z,46.32
2023-01-19T01:36:08.258Z,46.16
2023-01-19T01:38:35.345Z,45.97
2023-01-19T01:41:02.208Z,45.96
2023-01-19T01:43:28.861Z,45.58
2023-01-19T01:45:55.581Z,45.76
2023-01-19T01:48:22.254Z,45.37
2023-01-19T01:50:48.895Z,45.58
2023-01-19T01:53:15.554Z,45.47
2023-01-19T01:55:42.211Z,45.59
2023-01-19T01:58:08.866Z,45.50
2023-01-19T02:00:35.509Z,45.56
2023-01-19T02:03:02.691Z,45.40
2023-01-19T02:05:29.631Z,45.17
2023-01-19T02:07:56.268Z,45.09
2023-01-19T02:10:23.068Z,44.84
2023-01-19T02:12:49.702Z,44.78
2023-01-19T02:15:16.555Z,45.00
2023-01-19T02:17:43.231Z,45.09
2023-01-19T02:20:09.872Z,44.93
2023-01-19T02:22:36.726Z,44.61
2023-01-19T02:25:03.402Z,44.59
2023-01-19T02:27:30.084Z,44.47
2023-01-19T02:29:56.746Z,44.58
2023-01-19T02:32:23.419Z,44.28
2023-01-19T02:34:50.097Z,44.46
2023-01-19T02:37:16.767Z,44.06
2023-01-19T02:39:43.661Z,44.37
2023-01-19T02:42:10.323Z,44.15
2023-01-19T02:44:36.994Z,44.22
2023-01-19T02:47:03.636Z,44.09
2023-01-19T02:49:30.315Z,43.87
2023-01-19T02:51:56.970Z,44.00
2023-01-19T02:54:23.622Z,43.82
2023-01-19T02:56:50.497Z,43.53
2023-01-19T02:59:17.152Z,43.59
2023-01-19T03:01:43.893Z,43.44
2023-01-19T03:04:10.614Z,43.22
2023-01-19T03:06:37.259Z,43.50
2023-01-19T03:09:04.138Z,43.95
2023-01-19T03:11:30.798Z,43.40
2023-01-19T03:13:57.481Z,43.45
2023-01-19T03:16:24.154Z,43.42
2023-01-19T03:18:50.836Z,43.31
2023-01-19T03:21:17.512Z,43.09
2023-01-19T03:23:44.174Z,43.11
2023-01-19T03:26:10.839Z,43.22
2023-01-19T03:28:37.481Z,43.11
2023-01-19T03:31:04.384Z,43.22
2023-01-19T03:33:31.032Z,43.00
2023-01-19T03:35:57.923Z,42.93
2023-01-19T03:38:24.586Z,42.90
2023-01-19T03:40:51.259Z,42.80
2023-01-19T03:43:17.932Z,42.76
2023-01-19T03:45:44.572Z,42.93
2023-01-19T03:48:11.230Z,42.69
2023-01-19T03:50:38.087Z,42.77
2023-01-19T03:53:04.759Z,42.78
2023-01-19T03:55:31.425Z,42.68
2023-01-19T03:57:58.084Z,42.60
2023-01-19T04:00:24.980Z,42.79
2023-01-19T04:02:51.729Z,42.66
2023-01-19T04:05:18.433Z,42.55
2023-01-19T04:07:45.068Z,42.47
2023-01-19T04:10:11.701Z,42.45
2023-01-19T04:12:38.579Z,42.40
2023-01-19T04:15:05.219Z,42.29
2023-01-19T04:17:31.848Z,42.38
2023-01-19T04:19:58.502Z,42.25
2023-01-19T04:22:25.241Z,42.10
2023-01-19T04:24:51.894Z,42.15
2023-01-19T04:27:18.557Z,42.33
2023-01-19T04:29:45.436Z,42.18
2023-01-19T04:32:12.081Z,42.12
2023-01-19T04:34:38.742Z,42.06
2023-01-19T04:37:05.399Z,42.17
2023-01-19T04:39:32.155Z,41.95
2023-01-19T04:41:58.817Z,42.06
2023-01-19T04:44:25.481Z,41.87
2023-01-19T04:46:52.131Z,41.83
2023-01-19T04:49:18.765Z,42.05
2023-01-19T04:51:45.639Z,41.82
2023-01-19T04:54:12.269Z,41.79
2023-01-19T04:56:38.920Z,41.74
2023-01-19T04:59:05.581Z,41.59
2023-01-19T05:01:32.333Z,41.49
2023-01-19T05:03:59.015Z,41.53
2023-01-19T05:06:25.690Z,41.62
2023-01-19T05:08:52.324Z,41.59
2023-01-19T05:11:19.045Z,41.44
2023-01-19T05:13:45.713Z,41.48
2023-01-19T05:16:12.460Z,41.50
2023-01-19T05:18:39.229Z,41.49
2023-01-19T05:21:05.884Z,41.59
2023-01-19T05:23:32.538Z,41.42
2023-01-19T05:25:59.446Z,41.40
2023-01-19T05:28:26.214Z,41.49
2023-01-19T05:30:52.925Z,41.37
2023-01-19T05:33:19.586Z,41.34
2023-01-19T05:35:46.255Z,41.31
2023-01-19T05:38:13.628Z,41.30
2023-01-19T05:40:41.369Z,41.22
2023-01-19T05:43:08.000Z,41.22
2023-01-19T05:45:34.653Z,41.05
2023-01-19T05:48:01.513Z,41.07
2023-01-19T05:50:28.399Z,41.11
2023-01-19T05:52:55.063Z,41.13
2023-01-19T05:55:21.930Z,40.93
2023-01-19T05:57:48.974Z,41.01
2023-01-19T06:00:15.656Z,40.93
2023-01-19T06:02:42.662Z,40.88
2023-01-19T06:05:09.371Z,41.12
2023-01-19T06:07:36.052Z,40.87
2023-01-19T06:10:02.743Z,40.91
2023-01-19T06:12:29.606Z,40.76
2023-01-19T06:14:56.248Z,40.68
2023-01-19T06:17:22.899Z,40.68
2023-01-19T06:19:49.762Z,40.61
2023-01-19T06:22:16.412Z,40.65
2023-01-19T06:24:43.062Z,40.62
2023-01-19T06:27:09.730Z,40.64
2023-01-19T06:29:36.379Z,40.51
2023-01-19T06:32:03.095Z,40.58
2023-01-19T06:34:29.800Z,40.56
2023-01-19T06:36:56.644Z,40.52
2023-01-19T06:39:23.283Z,40.52
2023-01-19T06:41:49.953Z,40.45
2023-01-19T06:44:16.609Z,40.51
2023-01-19T06:46:43.304Z,40.57
2023-01-19T06:49:09.968Z,40.57
2023-01-19T06:51:36.606Z,40.50
2023-01-19T06:54:03.236Z,40.55
2023-01-19T06:56:29.885Z,40.56
2023-01-19T06:58:56.536Z,40.54
2023-01-19T07:01:23.330Z,41.05
2023-01-19T07:03:50.065Z,42.03
2023-01-19T07:06:16.701Z,41.77
2023-01-19T07:08:43.375Z,41.12
2023-01-19T07:11:22.266Z,41.35
2023-01-19T07:13:56.081Z,41.49
2023-01-19T07:16:23.040Z,41.34
2023-01-19T07:18:49.762Z,41.75
2023-01-19T07:21:16.391Z,41.70
2023-01-19T07:23:43.049Z,42.00
2023-01-19T07:26:10.393Z,41.88
2023-01-19T07:28:37.062Z,41.96
2023-01-19T07:31:04.115Z,41.95
2023-01-19T07:33:30.836Z,42.08
2023-01-19T07:35:57.689Z,39.92
2023-01-19T07:38:24.340Z,41.99
2023-01-19T07:40:51.464Z,42.96
2023-01-19T07:43:18.138Z,42.98
2023-01-19T07:45:44.821Z,42.53
2023-01-19T07:48:11.468Z,42.65
2023-01-19T07:50:38.112Z,42.57
2023-01-19T07:53:04.772Z,42.56
2023-01-19T07:55:31.377Z,42.45
2023-01-19T07:58:00.612Z,43.09
2023-01-19T08:00:27.313Z,42.89
2023-01-19T08:02:53.946Z,43.31
2023-01-19T08:05:20.802Z,43.19
2023-01-19T08:07:47.448Z,43.13
2023-01-19T08:10:14.124Z,43.11
2023-01-19T08:12:40.996Z,43.83
2023-01-19T08:15:07.663Z,43.33
2023-01-19T08:17:34.563Z,43.42
2023-01-19T08:20:01.267Z,43.24
2023-01-19T08:22:27.936Z,43.38
2023-01-19T08:24:54.593Z,43.42
2023-01-19T08:27:21.555Z,43.31
2023-01-19T08:29:48.248Z,43.28
2023-01-19T08:32:15.103Z,43.17
2023-01-19T08:34:42.005Z,43.29
2023-01-19T08:37:08.925Z,43.45
2023-01-19T08:39:35.572Z,43.35
2023-01-19T08:42:02.238Z,43.40
2023-01-19T08:44:28.938Z,43.28
2023-01-19T08:46:55.657Z,43.42
2023-01-19T08:49:22.316Z,43.33
2023-01-19T08:51:49.009Z,43.52
2023-01-19T08:54:18.449Z,43.07
2023-01-19T08:56:45.327Z,43.21
2023-01-19T08:59:13.086Z,43.03
2023-01-19T09:01:40.867Z,43.09
2023-01-19T09:04:07.540Z,43.60
2023-01-19T09:06:34.202Z,43.57
2023-01-19T09:09:01.068Z,43.71
2023-01-19T09:11:27.713Z,42.60
2023-01-19T09:13:54.361Z,43.18
2023-01-19T09:16:21.041Z,43.26
2023-01-19T09:18:47.704Z,43.05
2023-01-19T09:21:14.587Z,43.41
2023-01-19T09:23:41.243Z,43.03
2023-01-19T09:26:07.920Z,42.86
2023-01-19T09:28:34.798Z,42.93
2023-01-19T09:31:01.595Z,42.73
2023-01-19T09:33:28.505Z,43.28
2023-01-19T09:35:55.193Z,43.31
2023-01-19T09:38:21.823Z,43.68
2023-01-19T09:40:48.702Z,43.72
2023-01-19T09:43:15.355Z,43.70
2023-01-19T09:45:42.000Z,43.31
2023-01-19T09:48:08.677Z,44.15
2023-01-19T09:50:35.347Z,43.86
2023-01-19T09:53:02.575Z,42.88
2023-01-19T09:55:29.503Z,43.57
2023-01-19T09:57:56.166Z,43.46
2023-01-19T10:00:22.814Z,43.91
2023-01-19T10:02:49.542Z,43.60
2023-01-19T10:05:16.225Z,43.54
2023-01-19T10:07:42.908Z,43.61
2023-01-19T10:10:09.937Z,43.70
2023-01-19T10:12:36.586Z,43.59
2023-01-19T10:15:03.242Z,43.67
2023-01-19T10:17:29.902Z,43.64
2023-01-19T10:19:56.562Z,43.86
2023-01-19T10:22:23.205Z,43.40
2023-01-19T10:24:49.859Z,43.39
2023-01-19T10:27:16.533Z,43.40
2023-01-19T10:29:43.215Z,43.38
2023-01-19T10:32:09.938Z,43.20
2023-01-19T10:34:36.665Z,43.29
2023-01-19T10:37:03.354Z,43.91
2023-01-19T10:39:30.005Z,43.31
2023-01-19T10:41:56.759Z,43.17
2023-01-19T10:44:23.406Z,43.28
2023-01-19T10:46:50.044Z,43.55
2023-01-19T10:49:16.734Z,43.32
2023-01-19T10:51:43.384Z,43.31
2023-01-19T10:54:10.039Z,43.36
2023-01-19T10:56:36.745Z,43.40
2023-01-19T10:59:03.486Z,43.31
2023-01-19T11:01:30.246Z,43.60
2023-01-19T11:03:56.955Z,42.52
2023-01-19T11:06:23.646Z,42.03
2023-01-19T11:08:50.285Z,42.95
2023-01-19T11:11:16.963Z,43.18
2023-01-19T11:13:43.624Z,43.70
2023-01-19T11:16:12.356Z,43.51
2023-01-19T11:18:39.131Z,43.41
2023-01-19T11:21:05.795Z,43.31
2023-01-19T11:23:32.459Z,43.40
2023-01-19T11:25:59.328Z,43.49
2023-01-19T11:28:26.013Z,43.46
2023-01-19T11:30:52.680Z,43.50
2023-01-19T11:33:19.357Z,43.54
2023-01-19T11:35:46.225Z,43.61
2023-01-19T11:38:12.903Z,43.54
2023-01-19T11:40:39.578Z,43.59
2023-01-19T11:43:06.243Z,43.62
2023-01-19T11:45:32.968Z,43.68
2023-01-19T11:48:00.014Z,43.64
2023-01-19T11:50:26.776Z,43.60
2023-01-19T11:52:53.443Z,43.80
2023-01-19T11:55:20.091Z,43.72
2023-01-19T11:57:46.727Z,43.63
2023-01-19T12:00:13.384Z,43.49
2023-01-19T12:02:40.082Z,43.53
2023-01-19T12:05:06.745Z,43.33
2023-01-19T12:07:33.381Z,43.43
2023-01-19T12:10:00.036Z,43.50
2023-01-19T12:12:26.706Z,43.44
2023-01-19T12:14:53.567Z,43.41
2023-01-19T12:17:20.513Z,43.27
2023-01-19T12:19:47.169Z,43.37
2023-01-19T12:22:13.834Z,43.35
2023-01-19T12:24:40.511Z,43.09
2023-01-19T12:27:07.607Z,43.28
2023-01-19T12:29:34.340Z,43.21
2023-01-19T12:32:01.089Z,43.32
2023-01-19T12:34:27.794Z,43.32
2023-01-19T12:36:54.438Z,43.09
2023-01-19T12:39:21.082Z,42.07
2023-01-19T12:41:47.732Z,42.93
2023-01-19T12:44:14.377Z,43.08
2023-01-19T12:46:41.318Z,42.94
2023-01-19T12:49:08.221Z,42.88
2023-01-19T12:51:34.959Z,42.87
2023-01-19T12:54:01.658Z,42.89
2023-01-19T12:56:28.318Z,43.02
2023-01-19T12:58:54.962Z,42.84
2023-01-19T13:01:21.743Z,42.84
2023-01-19T13:03:48.530Z,43.11
2023-01-19T13:06:15.194Z,42.94
2023-01-19T13:08:41.858Z,43.05
2023-01-19T13:11:08.837Z,42.99
2023-01-19T13:13:35.499Z,42.93
2023-01-19T13:16:02.176Z,43.01
2023-01-19T13:18:29.071Z,42.88
2023-01-19T13:20:55.721Z,42.96
2023-01-19T13:23:22.388Z,42.88
2023-01-19T13:25:49.022Z,42.86
2023-01-19T13:28:16.188Z,42.93
2023-01-19T13:30:43.019Z,43.05
2023-01-19T13:33:09.715Z,42.79
2023-01-19T13:35:36.351Z,42.98
2023-01-19T13:38:03.013Z,43.07
2023-01-19T13:40:29.663Z,42.95
2023-01-19T13:42:56.311Z,42.90
2023-01-19T13:45:22.989Z,42.91
2023-01-19T13:47:49.661Z,42.97
2023-01-19T13:50:16.333Z,43.02
2023-01-19T13:52:43.000Z,43.03
2023-01-19T13:55:10.061Z,42.94
2023-01-19T13:57:36.868Z,42.95
2023-01-19T14:00:03.546Z,43.03
2023-01-19T14:02:30.326Z,42.35
2023-01-19T14:04:57.059Z,42.75
2023-01-19T14:07:23.731Z,41.40
2023-01-19T14:09:50.415Z,35.75
2023-01-19T14:12:17.092Z,49.94
2023-01-19T14:14:43.769Z,45.75
2023-01-19T14:17:10.446Z,45.32
2023-01-19T14:19:37.110Z,44.15
2023-01-19T14:22:03.841Z,43.53
2023-01-19T14:24:30.523Z,44.02
2023-01-19T14:26:57.200Z,43.63
2023-01-19T14:29:23.867Z,43.10
2023-01-19T14:31:50.547Z,43.60
2023-01-19T14:34:17.214Z,43.91
2023-01-19T14:36:43.851Z,43.69
2023-01-19T14:39:10.525Z,44.08
2023-01-19T14:41:37.416Z,44.02
2023-01-19T14:44:04.051Z,44.18
2023-01-19T14:46:30.767Z,41.01
2023-01-19T14:48:57.459Z,42.47
2023-01-19T14:51:24.159Z,42.85
2023-01-19T14:53:50.811Z,43.44
2023-01-19T14:56:17.448Z,43.45
2023-01-19T14:58:44.116Z,43.36
2023-01-19T15:01:10.957Z,43.44
2023-01-19T15:03:44.697Z,43.54
2023-01-19T15:06:11.967Z,43.39
2023-01-19T15:08:38.835Z,43.52
2023-01-19T15:11:05.497Z,43.36
2023-01-19T15:13:32.131Z,42.98
2023-01-19T15:15:58.775Z,43.11
2023-01-19T15:18:25.436Z,43.23
2023-01-19T15:20:52.099Z,43.11
2023-01-19T15:23:18.764Z,43.11
2023-01-19T15:25:45.642Z,43.02
2023-01-19T15:28:12.279Z,42.81
2023-01-19T15:30:38.993Z,43.25
2023-01-19T15:33:05.727Z,42.94
2023-01-19T15:35:32.396Z,42.89
2023-01-19T15:37:59.061Z,43.04
2023-01-19T15:40:25.815Z,42.51
2023-01-19T15:42:52.718Z,42.59
2023-01-19T15:45:19.382Z,42.98
2023-01-19T15:47:46.026Z,43.16
2023-01-19T15:50:12.691Z,43.34
2023-01-19T15:52:39.385Z,42.95
2023-01-19T15:55:06.021Z,42.90
2023-01-19T15:57:32.648Z,42.75
2023-01-19T15:59:59.559Z,43.03
2023-01-19T16:02:26.241Z,43.17
2023-01-19T16:04:52.882Z,43.28
2023-01-19T16:07:19.587Z,42.92
2023-01-19T16:09:46.317Z,43.26
2023-01-19T16:12:13.193Z,43.25
2023-01-19T16:14:40.111Z,43.21
2023-01-19T16:17:06.744Z,43.17
2023-01-19T16:19:33.434Z,43.23
2023-01-19T16:22:00.083Z,43.14
2023-01-19T16:24:26.749Z,43.07
2023-01-19T16:26:53.414Z,43.20
2023-01-19T16:29:20.099Z,43.18
2023-01-19T16:31:46.825Z,42.75
2023-01-19T16:34:13.511Z,41.37
2023-01-19T16:36:40.147Z,42.44
2023-01-19T16:39:06.810Z,42.76
2023-01-19T16:41:33.482Z,42.68
2023-01-19T16:44:00.149Z,43.03
2023-01-19T16:46:26.831Z,43.09
2023-01-19T16:48:53.811Z,43.25
2023-01-19T16:51:20.671Z,43.50
2023-01-19T16:53:47.950Z,43.37
2023-01-19T16:56:14.653Z,43.53
2023-01-19T16:58:41.336Z,43.54
2023-01-19T17:01:08.077Z,43.69
2023-01-19T17:03:34.816Z,43.60
2023-01-19T17:06:01.449Z,43.61
2023-01-19T17:08:28.127Z,43.35
2023-01-19T17:10:54.769Z,42.87
2023-01-19T17:13:21.648Z,40.47
2023-01-19T17:15:48.279Z,41.72
2023-01-19T17:18:14.922Z,42.63
2023-01-19T17:20:41.583Z,42.63
2023-01-19T17:23:08.230Z,42.95
2023-01-19T17:25:34.864Z,43.36
2023-01-19T17:28:01.499Z,43.30
2023-01-19T17:30:28.264Z,43.48
2023-01-19T17:32:54.975Z,43.57
2023-01-19T17:35:21.627Z,42.65
2023-01-19T17:37:48.298Z,43.11
2023-01-19T17:40:15.132Z,43.38
2023-01-19T17:42:44.796Z,43.53
2023-01-19T17:45:11.703Z,43.58
2023-01-19T17:47:38.383Z,43.66
2023-01-19T17:50:07.563Z,43.60
2023-01-19T17:52:34.191Z,43.61
2023-01-19T17:55:00.844Z,43.43
2023-01-19T17:57:27.711Z,43.10
2023-01-19T17:59:54.377Z,43.38
2023-01-19T18:02:21.088Z,43.53
2023-01-19T18:04:47.828Z,43.60
2023-01-19T18:07:14.508Z,43.61
2023-01-19T18:09:41.151Z,43.56
2023-01-19T18:12:07.813Z,43.48
2023-01-19T18:14:34.730Z,43.59
2023-01-19T18:17:01.374Z,43.71
2023-01-19T18:19:28.028Z,43.97
2023-01-19T18:21:54.623Z,40.91
2023-01-19T18:24:21.266Z,41.89
2023-01-19T18:26:47.927Z,41.75
2023-01-19T18:29:14.592Z,42.51
2023-01-19T18:31:41.333Z,42.56
2023-01-19T18:34:07.972Z,41.99
2023-01-19T18:36:34.633Z,42.63
2023-01-19T18:39:01.286Z,42.92
2023-01-19T18:41:29.754Z,43.05
2023-01-19T18:43:56.548Z,43.29
2023-01-19T18:46:23.229Z,43.21
2023-01-19T18:48:49.909Z,43.15
2023-01-19T18:51:16.586Z,43.33
2023-01-19T18:53:43.247Z,43.23
2023-01-19T18:56:09.907Z,42.65
2023-01-19T18:58:36.791Z,42.99
2023-01-19T19:01:03.482Z,42.79
2023-01-19T19:03:30.170Z,42.61
2023-01-19T19:05:56.888Z,41.95
2023-01-19T19:08:23.816Z,42.77
2023-01-19T19:10:50.488Z,42.54
2023-01-19T19:13:18.372Z,43.00
2023-01-19T19:15:45.063Z,43.54
2023-01-19T19:18:11.784Z,43.47
2023-01-19T19:20:38.429Z,43.87
2023-01-19T19:23:05.421Z,43.66
2023-01-19T19:25:34.472Z,43.83
2023-01-19T19:28:01.143Z,43.61
2023-01-19T19:30:27.828Z,43.49
2023-01-19T19:32:54.502Z,43.39
2023-01-19T19:35:21.153Z,43.54
2023-01-19T19:37:47.836Z,42.61
2023-01-19T19:40:14.744Z,42.84
2023-01-19T19:42:41.754Z,43.33
2023-01-19T19:45:08.675Z,43.23
2023-01-19T19:47:35.380Z,43.13
2023-01-19T19:50:02.086Z,43.61
2023-01-19T19:52:28.981Z,43.38
2023-01-19T19:54:55.674Z,42.95
2023-01-19T19:57:22.415Z,43.32
2023-01-19T19:59:49.079Z,43.74
2023-01-19T20:02:15.936Z,43.92
2023-01-19T20:04:42.625Z,44.04
2023-01-19T20:07:09.292Z,44.04
2023-01-19T20:09:35.969Z,44.29
2023-01-19T20:12:02.604Z,43.99
2023-01-19T20:14:29.249Z,44.01
2023-01-19T20:16:55.901Z,44.01
2023-01-19T20:19:22.542Z,44.16
2023-01-19T20:21:49.207Z,43.87
2023-01-19T20:24:15.892Z,43.79
2023-01-19T20:26:42.552Z,44.05
2023-01-19T20:29:09.435Z,43.79
2023-01-19T20:31:36.146Z,43.86
2023-01-19T20:34:02.872Z,43.77
2023-01-19T20:36:29.509Z,43.79
2023-01-19T20:38:56.182Z,43.80
2023-01-19T20:41:22.834Z,43.98
2023-01-19T20:43:49.478Z,42.93
2023-01-19T20:46:16.151Z,46.54
2023-01-19T20:48:42.827Z,43.80
2023-01-19T20:51:09.972Z,43.66
2023-01-19T20:53:36.609Z,43.75
2023-01-19T20:56:05.949Z,43.74
2023-01-19T20:58:32.773Z,43.66
2023-01-19T21:00:59.504Z,43.62
2023-01-19T21:03:26.195Z,43.48
2023-01-19T21:05:52.848Z,43.65
2023-01-19T21:08:19.547Z,43.57
2023-01-19T21:10:46.209Z,43.72
2023-01-19T21:13:12.864Z,43.66
2023-01-19T21:15:39.504Z,43.48
2023-01-19T21:18:06.189Z,43.62
2023-01-19T21:20:32.851Z,43.46
2023-01-19T21:22:59.497Z,43.55
2023-01-19T21:25:26.132Z,43.32
2023-01-19T21:27:53.028Z,42.96
2023-01-19T21:30:19.720Z,40.94
2023-01-19T21:32:46.404Z,42.27
2023-01-19T21:35:13.284Z,42.59
2023-01-19T21:37:40.190Z,42.82
2023-01-19T21:40:06.883Z,42.77
2023-01-19T21:42:33.544Z,41.56
2023-01-19T21:45:00.408Z,42.68
2023-01-19T21:47:27.159Z,42.58
2023-01-19T21:49:53.812Z,42.46
2023-01-19T21:52:20.466Z,42.59
2023-01-19T21:54:47.150Z,42.88
2023-01-19T21:57:13.804Z,41.87
2023-01-19T21:59:40.431Z,42.41
2023-01-19T22:02:07.284Z,42.29
2023-01-19T22:04:34.019Z,42.54
2023-01-19T22:07:00.678Z,42.95
2023-01-19T22:09:27.326Z,43.02
2023-01-19T22:11:53.982Z,42.84
2023-01-19T22:14:20.827Z,42.90
2023-01-19T22:16:47.530Z,42.67
2023-01-19T22:19:14.208Z,42.95
2023-01-19T22:21:41.058Z,42.84
2023-01-19T22:24:07.700Z,43.02
2023-01-19T22:26:34.577Z,42.83
2023-01-19T22:29:01.288Z,42.64
2023-01-19T22:31:28.201Z,43.06
2023-01-19T22:33:55.175Z,43.32
2023-01-19T22:36:21.822Z,43.19
2023-01-19T22:38:48.466Z,43.02
2023-01-19T22:41:15.346Z,43.03
2023-01-19T22:43:41.986Z,43.10
2023-01-19T22:46:08.999Z,42.96
2023-01-19T22:48:35.890Z,43.09
2023-01-19T22:51:02.576Z,42.93
2023-01-19T22:53:29.436Z,43.34
2023-01-19T22:55:56.076Z,43.28
2023-01-19T22:58:23.133Z,43.15
2023-01-19T23:00:49.857Z,43.03
2023-01-19T23:03:17.324Z,43.09
2023-01-19T23:05:43.978Z,43.02
2023-01-19T23:08:10.872Z,43.05
2023-01-19T23:10:38.344Z,43.21
2023-01-19T23:13:05.402Z,42.97
2023-01-19T23:15:32.103Z,42.97
2023-01-19T23:17:58.778Z,42.85
2023-01-19T23:20:25.451Z,42.99
2023-01-19T23:22:52.124Z,43.04
2023-01-19T23:25:18.769Z,42.95
2023-01-19T23:27:45.407Z,43.15
2023-01-19T23:30:12.077Z,43.13
2023-01-19T23:32:38.769Z,43.12
2023-01-19T23:35:05.446Z,43.04
2023-01-19T23:37:32.104Z,43.12
2023-01-19T23:39:58.774Z,43.02
2023-01-19T23:42:25.447Z,43.00
2023-01-19T23:44:52.303Z,43.10
2023-01-19T23:47:18.938Z,43.04
2023-01-19T23:49:45.814Z,42.88
2023-01-19T23:52:12.446Z,42.77
2023-01-19T23:54:39.102Z,42.94
2023-01-19T23:57:05.741Z,42.77
2023-01-19T23:59:32.406Z,42.88
